Terminal Aerodrome Forecast
Issued by NWS

Home | Current Version | Previous Version | Text Only | Print | Product List | Glossary On
Versions: 1 2 3 4 5 6 7 8 9 10 11 12 13 14 15 16 17 18 19 20 21 22 23 24
000
FTUS43 KGRR 220500 RRA
TAFLAN
TAF
KLAN 220543Z 2206/2306 00000KT 6SM BR BKN100
     FM220700 10003KT 5SM BR OVC070
     FM220900 11002KT 2SM BR OVC015
     FM221100 14003KT 1/4SM FG VV001
     FM221400 13004KT 3SM BR OVC010
     FM221800 00000KT P6SM BKN250=

USA.gov is the U.S. government's official web portal to all federal, state and local government web resources and services.